sensor_id;sensor_type;location;lat;lon;timestamp;P1;durP1;ratioP1;P2;durP2;ratioP2
16393;SDS011;8306;51.128;4.476;2023-07-16T00:02:21;2.67;;;1.60;;
16393;SDS011;8306;51.128;4.476;2023-07-16T00:04:48;5.07;;;1.90;;
16393;SDS011;8306;51.128;4.476;2023-07-16T00:07:14;2.50;;;1.20;;
16393;SDS011;8306;51.128;4.476;2023-07-16T00:09:41;4.37;;;1.73;;
16393;SDS011;8306;51.128;4.476;2023-07-16T00:12:07;4.93;;;2.03;;
16393;SDS011;8306;51.128;4.476;2023-07-16T00:14:34;2.60;;;1.50;;
16393;SDS011;8306;51.128;4.476;2023-07-16T00:17:00;3.60;;;1.63;;
16393;SDS011;8306;51.128;4.476;2023-07-16T00:19:27;3.27;;;1.60;;
16393;SDS011;8306;51.128;4.476;2023-07-16T00:21:53;3.87;;;2.23;;
16393;SDS011;8306;51.128;4.476;2023-07-16T00:24:20;4.53;;;1.73;;
16393;SDS011;8306;51.128;4.476;2023-07-16T00:26:46;4.33;;;2.00;;
16393;SDS011;8306;51.128;4.476;2023-07-16T00:29:13;2.47;;;1.67;;
16393;SDS011;8306;51.128;4.476;2023-07-16T00:31:39;3.90;;;1.70;;
16393;SDS011;8306;51.128;4.476;2023-07-16T00:34:06;4.37;;;1.80;;
16393;SDS011;8306;51.128;4.476;2023-07-16T00:36:32;3.53;;;1.70;;
16393;SDS011;8306;51.128;4.476;2023-07-16T00:38:59;3.13;;;1.50;;
16393;SDS011;8306;51.128;4.476;2023-07-16T00:41:25;3.87;;;1.60;;
16393;SDS011;8306;51.128;4.476;2023-07-16T00:43:52;3.80;;;1.90;;
16393;SDS011;8306;51.128;4.476;2023-07-16T00:46:18;2.57;;;1.53;;
16393;SDS011;8306;51.128;4.476;2023-07-16T00:48:45;3.83;;;1.93;;
16393;SDS011;8306;51.128;4.476;2023-07-16T00:51:11;3.70;;;2.00;;
16393;SDS011;8306;51.128;4.476;2023-07-16T00:53:38;2.97;;;1.97;;
16393;SDS011;8306;51.128;4.476;2023-07-16T00:56:04;4.83;;;2.13;;
16393;SDS011;8306;51.128;4.476;2023-07-16T00:58:30;3.63;;;1.67;;
16393;SDS011;8306;51.128;4.476;2023-07-16T01:00:57;4.33;;;1.90;;
16393;SDS011;8306;51.128;4.476;2023-07-16T01:03:23;4.40;;;1.90;;
16393;SDS011;8306;51.128;4.476;2023-07-16T01:08:48;5.37;;;1.80;;
16393;SDS011;8306;51.128;4.476;2023-07-16T01:11:13;4.57;;;1.83;;
16393;SDS011;8306;51.128;4.476;2023-07-16T01:13:39;3.53;;;1.60;;
16393;SDS011;8306;51.128;4.476;2023-07-16T01:16:06;3.43;;;1.63;;
16393;SDS011;8306;51.128;4.476;2023-07-16T01:18:32;5.20;;;1.97;;
16393;SDS011;8306;51.128;4.476;2023-07-16T01:20:59;5.23;;;1.67;;
16393;SDS011;8306;51.128;4.476;2023-07-16T01:31:39;5.17;;;2.03;;
16393;SDS011;8306;51.128;4.476;2023-07-16T01:34:05;3.67;;;1.80;;
16393;SDS011;8306;51.128;4.476;2023-07-16T01:36:32;4.43;;;2.10;;
16393;SDS011;8306;51.128;4.476;2023-07-16T01:38:58;4.87;;;2.43;;
16393;SDS011;8306;51.128;4.476;2023-07-16T01:41:25;4.40;;;2.37;;
16393;SDS011;8306;51.128;4.476;2023-07-16T01:43:51;3.70;;;2.00;;
16393;SDS011;8306;51.128;4.476;2023-07-16T01:46:18;3.77;;;1.83;;
16393;SDS011;8306;51.128;4.476;2023-07-16T01:48:44;4.83;;;2.20;;
16393;SDS011;8306;51.128;4.476;2023-07-16T01:51:11;3.70;;;1.87;;
16393;SDS011;8306;51.128;4.476;2023-07-16T01:53:37;3.70;;;2.13;;
16393;SDS011;8306;51.128;4.476;2023-07-16T01:56:04;5.17;;;2.30;;
16393;SDS011;8306;51.128;4.476;2023-07-16T01:58:30;4.57;;;2.13;;
16393;SDS011;8306;51.128;4.476;2023-07-16T02:00:57;4.13;;;2.10;;
16393;SDS011;8306;51.128;4.476;2023-07-16T02:03:23;4.40;;;2.20;;
16393;SDS011;8306;51.128;4.476;2023-07-16T02:05:49;6.00;;;2.40;;
16393;SDS011;8306;51.128;4.476;2023-07-16T02:08:16;3.87;;;2.30;;
16393;SDS011;8306;51.128;4.476;2023-07-16T02:10:42;6.83;;;2.40;;
16393;SDS011;8306;51.128;4.476;2023-07-16T02:13:09;3.70;;;2.33;;
16393;SDS011;8306;51.128;4.476;2023-07-16T02:15:35;6.77;;;2.50;;
16393;SDS011;8306;51.128;4.476;2023-07-16T02:18:03;5.77;;;2.80;;
16393;SDS011;8306;51.128;4.476;2023-07-16T02:20:28;5.20;;;2.73;;
16393;SDS011;8306;51.128;4.476;2023-07-16T02:22:55;4.27;;;2.63;;
16393;SDS011;8306;51.128;4.476;2023-07-16T02:25:21;5.53;;;2.77;;
16393;SDS011;8306;51.128;4.476;2023-07-16T02:27:48;4.50;;;3.00;;
16393;SDS011;8306;51.128;4.476;2023-07-16T02:30:14;6.57;;;2.90;;
16393;SDS011;8306;51.128;4.476;2023-07-16T02:32:41;4.53;;;2.77;;
16393;SDS011;8306;51.128;4.476;2023-07-16T02:35:07;6.40;;;3.10;;
16393;SDS011;8306;51.128;4.476;2023-07-16T02:37:34;3.80;;;3.10;;
16393;SDS011;8306;51.128;4.476;2023-07-16T02:40:00;5.43;;;3.00;;
16393;SDS011;8306;51.128;4.476;2023-07-16T02:42:27;3.83;;;3.03;;
16393;SDS011;8306;51.128;4.476;2023-07-16T02:44:53;4.37;;;3.13;;
16393;SDS011;8306;51.128;4.476;2023-07-16T02:47:20;3.03;;;2.73;;
16393;SDS011;8306;51.128;4.476;2023-07-16T02:49:46;4.67;;;2.90;;
16393;SDS011;8306;51.128;4.476;2023-07-16T02:52:13;4.00;;;2.70;;
16393;SDS011;8306;51.128;4.476;2023-07-16T02:54:39;3.20;;;2.90;;
16393;SDS011;8306;51.128;4.476;2023-07-16T02:57:06;5.07;;;2.80;;
16393;SDS011;8306;51.128;4.476;2023-07-16T02:59:32;3.93;;;2.70;;
16393;SDS011;8306;51.128;4.476;2023-07-16T03:01:59;3.53;;;2.77;;
16393;SDS011;8306;51.128;4.476;2023-07-16T03:04:25;4.77;;;2.83;;
16393;SDS011;8306;51.128;4.476;2023-07-16T03:06:51;6.83;;;2.93;;
16393;SDS011;8306;51.128;4.476;2023-07-16T03:09:18;4.03;;;2.90;;
16393;SDS011;8306;51.128;4.476;2023-07-16T03:11:44;3.17;;;2.77;;
16393;SDS011;8306;51.128;4.476;2023-07-16T03:14:11;3.97;;;2.90;;
16393;SDS011;8306;51.128;4.476;2023-07-16T03:16:37;5.67;;;2.80;;
16393;SDS011;8306;51.128;4.476;2023-07-16T03:19:04;3.60;;;3.20;;
16393;SDS011;8306;51.128;4.476;2023-07-16T03:21:30;4.77;;;3.30;;
16393;SDS011;8306;51.128;4.476;2023-07-16T03:23:57;4.53;;;2.97;;
16393;SDS011;8306;51.128;4.476;2023-07-16T03:26:23;3.97;;;3.10;;
16393;SDS011;8306;51.128;4.476;2023-07-16T03:28:50;4.90;;;3.00;;
16393;SDS011;8306;51.128;4.476;2023-07-16T03:31:16;5.67;;;3.50;;
16393;SDS011;8306;51.128;4.476;2023-07-16T03:33:43;4.90;;;3.30;;
16393;SDS011;8306;51.128;4.476;2023-07-16T03:36:09;4.67;;;3.33;;
16393;SDS011;8306;51.128;4.476;2023-07-16T03:38:36;4.77;;;3.50;;
16393;SDS011;8306;51.128;4.476;2023-07-16T03:41:02;5.53;;;3.77;;
16393;SDS011;8306;51.128;4.476;2023-07-16T03:43:29;5.93;;;3.70;;
16393;SDS011;8306;51.128;4.476;2023-07-16T03:45:55;4.90;;;3.20;;
16393;SDS011;8306;51.128;4.476;2023-07-16T03:48:22;4.33;;;3.70;;
16393;SDS011;8306;51.128;4.476;2023-07-16T03:50:48;6.67;;;3.17;;
16393;SDS011;8306;51.128;4.476;2023-07-16T03:53:15;4.47;;;4.00;;
16393;SDS011;8306;51.128;4.476;2023-07-16T03:55:41;6.60;;;4.00;;
16393;SDS011;8306;51.128;4.476;2023-07-16T03:58:08;7.33;;;4.10;;
16393;SDS011;8306;51.128;4.476;2023-07-16T04:00:34;5.80;;;4.10;;
16393;SDS011;8306;51.128;4.476;2023-07-16T04:03:01;5.20;;;3.93;;
16393;SDS011;8306;51.128;4.476;2023-07-16T04:05:27;5.60;;;3.80;;
16393;SDS011;8306;51.128;4.476;2023-07-16T04:07:54;7.23;;;4.07;;
16393;SDS011;8306;51.128;4.476;2023-07-16T04:10:20;4.73;;;4.17;;
16393;SDS011;8306;51.128;4.476;2023-07-16T04:12:47;8.83;;;4.20;;
16393;SDS011;8306;51.128;4.476;2023-07-16T04:15:13;4.70;;;4.10;;
16393;SDS011;8306;51.128;4.476;2023-07-16T04:17:39;6.43;;;4.17;;
16393;SDS011;8306;51.128;4.476;2023-07-16T04:20:06;5.63;;;4.00;;
16393;SDS011;8306;51.128;4.476;2023-07-16T04:22:33;7.50;;;4.53;;
16393;SDS011;8306;51.128;4.476;2023-07-16T04:24:59;7.13;;;4.20;;
16393;SDS011;8306;51.128;4.476;2023-07-16T04:27:25;6.27;;;4.17;;
16393;SDS011;8306;51.128;4.476;2023-07-16T04:29:52;4.73;;;4.17;;
16393;SDS011;8306;51.128;4.476;2023-07-16T04:32:18;8.17;;;4.57;;
16393;SDS011;8306;51.128;4.476;2023-07-16T04:34:45;6.87;;;4.30;;
16393;SDS011;8306;51.128;4.476;2023-07-16T04:37:11;5.53;;;4.53;;
16393;SDS011;8306;51.128;4.476;2023-07-16T04:39:38;6.07;;;4.20;;
16393;SDS011;8306;51.128;4.476;2023-07-16T04:42:04;6.23;;;4.63;;
16393;SDS011;8306;51.128;4.476;2023-07-16T04:44:31;6.13;;;4.40;;
16393;SDS011;8306;51.128;4.476;2023-07-16T04:46:57;6.93;;;4.60;;
16393;SDS011;8306;51.128;4.476;2023-07-16T04:49:24;5.57;;;4.50;;
16393;SDS011;8306;51.128;4.476;2023-07-16T04:51:50;5.73;;;4.47;;
16393;SDS011;8306;51.128;4.476;2023-07-16T04:54:17;6.73;;;4.53;;
16393;SDS011;8306;51.128;4.476;2023-07-16T04:56:43;4.97;;;4.37;;
16393;SDS011;8306;51.128;4.476;2023-07-16T04:59:10;7.47;;;4.37;;
16393;SDS011;8306;51.128;4.476;2023-07-16T05:01:36;4.10;;;3.70;;
16393;SDS011;8306;51.128;4.476;2023-07-16T05:04:03;6.77;;;4.20;;
16393;SDS011;8306;51.128;4.476;2023-07-16T05:06:29;5.30;;;4.27;;
16393;SDS011;8306;51.128;4.476;2023-07-16T05:08:56;4.80;;;4.20;;
16393;SDS011;8306;51.128;4.476;2023-07-16T05:11:22;5.77;;;4.20;;
16393;SDS011;8306;51.128;4.476;2023-07-16T05:13:48;6.33;;;5.00;;
16393;SDS011;8306;51.128;4.476;2023-07-16T05:16:15;5.50;;;4.40;;
16393;SDS011;8306;51.128;4.476;2023-07-16T05:18:41;5.90;;;4.90;;
16393;SDS011;8306;51.128;4.476;2023-07-16T05:21:08;6.27;;;4.60;;
16393;SDS011;8306;51.128;4.476;2023-07-16T05:23:34;5.93;;;4.77;;
16393;SDS011;8306;51.128;4.476;2023-07-16T05:26:01;4.37;;;3.97;;
16393;SDS011;8306;51.128;4.476;2023-07-16T05:28:27;5.63;;;4.63;;
16393;SDS011;8306;51.128;4.476;2023-07-16T05:31:00;5.63;;;4.60;;
16393;SDS011;8306;51.128;4.476;2023-07-16T05:33:26;5.33;;;4.40;;
16393;SDS011;8306;51.128;4.476;2023-07-16T05:35:53;4.67;;;4.10;;
16393;SDS011;8306;51.128;4.476;2023-07-16T05:38:19;5.30;;;4.33;;
16393;SDS011;8306;51.128;4.476;2023-07-16T05:40:46;5.30;;;4.80;;
16393;SDS011;8306;51.128;4.476;2023-07-16T05:43:12;5.70;;;4.93;;
16393;SDS011;8306;51.128;4.476;2023-07-16T05:45:39;6.07;;;4.67;;
16393;SDS011;8306;51.128;4.476;2023-07-16T05:48:05;6.13;;;4.63;;
16393;SDS011;8306;51.128;4.476;2023-07-16T05:50:32;6.17;;;4.67;;
16393;SDS011;8306;51.128;4.476;2023-07-16T05:52:58;5.40;;;4.90;;
16393;SDS011;8306;51.128;4.476;2023-07-16T05:55:25;5.27;;;4.53;;
16393;SDS011;8306;51.128;4.476;2023-07-16T05:57:51;6.57;;;4.97;;
16393;SDS011;8306;51.128;4.476;2023-07-16T06:00:18;4.97;;;4.57;;
16393;SDS011;8306;51.128;4.476;2023-07-16T06:02:44;5.20;;;4.70;;
16393;SDS011;8306;51.128;4.476;2023-07-16T06:05:10;6.17;;;4.70;;
16393;SDS011;8306;51.128;4.476;2023-07-16T06:07:37;5.43;;;4.90;;
16393;SDS011;8306;51.128;4.476;2023-07-16T06:10:03;7.57;;;4.47;;
16393;SDS011;8306;51.128;4.476;2023-07-16T06:12:30;5.83;;;5.23;;
16393;SDS011;8306;51.128;4.476;2023-07-16T06:14:56;5.60;;;4.83;;
16393;SDS011;8306;51.128;4.476;2023-07-16T06:17:23;6.33;;;4.77;;
16393;SDS011;8306;51.128;4.476;2023-07-16T06:19:49;5.87;;;5.10;;
16393;SDS011;8306;51.128;4.476;2023-07-16T06:22:16;6.87;;;4.80;;
16393;SDS011;8306;51.128;4.476;2023-07-16T06:24:42;5.03;;;4.50;;
16393;SDS011;8306;51.128;4.476;2023-07-16T06:27:09;5.80;;;4.80;;
16393;SDS011;8306;51.128;4.476;2023-07-16T06:29:35;5.80;;;5.20;;
16393;SDS011;8306;51.128;4.476;2023-07-16T06:32:02;5.73;;;5.10;;
16393;SDS011;8306;51.128;4.476;2023-07-16T06:34:28;6.70;;;5.00;;
16393;SDS011;8306;51.128;4.476;2023-07-16T06:36:55;7.33;;;5.20;;
16393;SDS011;8306;51.128;4.476;2023-07-16T06:39:21;8.27;;;5.20;;
16393;SDS011;8306;51.128;4.476;2023-07-16T06:41:53;6.00;;;5.10;;
16393;SDS011;8306;51.128;4.476;2023-07-16T06:44:19;6.30;;;5.33;;
16393;SDS011;8306;51.128;4.476;2023-07-16T06:46:45;4.97;;;4.43;;
16393;SDS011;8306;51.128;4.476;2023-07-16T06:49:12;5.57;;;5.03;;
16393;SDS011;8306;51.128;4.476;2023-07-16T06:51:38;5.70;;;5.20;;
16393;SDS011;8306;51.128;4.476;2023-07-16T06:54:06;5.40;;;4.83;;
16393;SDS011;8306;51.128;4.476;2023-07-16T06:56:31;5.07;;;4.57;;
16393;SDS011;8306;51.128;4.476;2023-07-16T06:58:58;8.73;;;4.70;;
16393;SDS011;8306;51.128;4.476;2023-07-16T07:01:24;6.90;;;4.80;;
16393;SDS011;8306;51.128;4.476;2023-07-16T07:03:51;7.23;;;5.23;;
16393;SDS011;8306;51.128;4.476;2023-07-16T07:06:17;5.03;;;4.63;;
16393;SDS011;8306;51.128;4.476;2023-07-16T07:08:44;5.03;;;4.60;;
16393;SDS011;8306;51.128;4.476;2023-07-16T07:11:10;5.93;;;4.70;;
16393;SDS011;8306;51.128;4.476;2023-07-16T07:13:37;5.03;;;4.57;;
16393;SDS011;8306;51.128;4.476;2023-07-16T07:16:03;4.53;;;4.10;;
16393;SDS011;8306;51.128;4.476;2023-07-16T07:18:30;5.32;;;4.90;;
16393;SDS011;8306;51.128;4.476;2023-07-16T07:20:56;5.45;;;4.68;;
16393;SDS011;8306;51.128;4.476;2023-07-16T07:23:23;6.53;;;4.85;;
16393;SDS011;8306;51.128;4.476;2023-07-16T07:25:49;6.05;;;4.60;;
16393;SDS011;8306;51.128;4.476;2023-07-16T07:28:16;6.43;;;5.05;;
16393;SDS011;8306;51.128;4.476;2023-07-16T07:30:42;5.87;;;5.28;;
16393;SDS011;8306;51.128;4.476;2023-07-16T07:33:09;5.95;;;4.50;;
16393;SDS011;8306;51.128;4.476;2023-07-16T07:35:35;6.47;;;4.78;;
16393;SDS011;8306;51.128;4.476;2023-07-16T07:38:01;5.03;;;4.50;;
16393;SDS011;8306;51.128;4.476;2023-07-16T07:40:28;5.10;;;4.70;;
16393;SDS011;8306;51.128;4.476;2023-07-16T07:42:54;5.22;;;4.70;;
16393;SDS011;8306;51.128;4.476;2023-07-16T07:45:21;6.22;;;4.70;;
16393;SDS011;8306;51.128;4.476;2023-07-16T07:47:47;5.85;;;5.18;;
16393;SDS011;8306;51.128;4.476;2023-07-16T07:50:14;10.13;;;4.83;;
16393;SDS011;8306;51.128;4.476;2023-07-16T07:52:40;5.15;;;4.65;;
16393;SDS011;8306;51.128;4.476;2023-07-16T07:55:07;5.85;;;4.30;;
16393;SDS011;8306;51.128;4.476;2023-07-16T07:57:33;5.20;;;4.70;;
16393;SDS011;8306;51.128;4.476;2023-07-16T08:00:00;5.90;;;4.43;;
16393;SDS011;8306;51.128;4.476;2023-07-16T08:02:26;5.20;;;4.60;;
16393;SDS011;8306;51.128;4.476;2023-07-16T08:04:53;5.18;;;4.68;;
16393;SDS011;8306;51.128;4.476;2023-07-16T08:07:19;5.70;;;4.68;;
16393;SDS011;8306;51.128;4.476;2023-07-16T08:09:46;5.50;;;4.50;;
16393;SDS011;8306;51.128;4.476;2023-07-16T08:12:12;5.25;;;4.75;;
16393;SDS011;8306;51.128;4.476;2023-07-16T08:14:39;5.75;;;4.32;;
16393;SDS011;8306;51.128;4.476;2023-07-16T08:17:05;5.20;;;4.57;;
16393;SDS011;8306;51.128;4.476;2023-07-16T08:19:32;4.80;;;4.12;;
16393;SDS011;8306;51.128;4.476;2023-07-16T08:21:58;5.15;;;4.65;;
16393;SDS011;8306;51.128;4.476;2023-07-16T08:24:25;4.90;;;4.30;;
16393;SDS011;8306;51.128;4.476;2023-07-16T08:26:51;4.95;;;4.07;;
16393;SDS011;8306;51.128;4.476;2023-07-16T08:29:18;4.85;;;4.35;;
16393;SDS011;8306;51.128;4.476;2023-07-16T08:31:44;5.18;;;4.65;;
16393;SDS011;8306;51.128;4.476;2023-07-16T08:34:10;4.85;;;4.35;;
16393;SDS011;8306;51.128;4.476;2023-07-16T08:36:37;6.20;;;4.30;;
16393;SDS011;8306;51.128;4.476;2023-07-16T08:39:03;6.12;;;4.53;;
16393;SDS011;8306;51.128;4.476;2023-07-16T08:41:30;5.07;;;4.68;;
16393;SDS011;8306;51.128;4.476;2023-07-16T08:43:56;5.47;;;4.53;;
16393;SDS011;8306;51.128;4.476;2023-07-16T08:46:23;6.13;;;4.60;;
16393;SDS011;8306;51.128;4.476;2023-07-16T08:48:49;5.33;;;4.10;;
16393;SDS011;8306;51.128;4.476;2023-07-16T08:51:16;4.47;;;4.07;;
16393;SDS011;8306;51.128;4.476;2023-07-16T08:53:42;5.10;;;4.60;;
16393;SDS011;8306;51.128;4.476;2023-07-16T08:56:09;4.50;;;4.10;;
16393;SDS011;8306;51.128;4.476;2023-07-16T08:58:35;5.80;;;4.40;;
16393;SDS011;8306;51.128;4.476;2023-07-16T09:01:02;6.53;;;4.47;;
16393;SDS011;8306;51.128;4.476;2023-07-16T09:03:28;5.00;;;4.50;;
16393;SDS011;8306;51.128;4.476;2023-07-16T09:05:55;4.70;;;4.03;;
16393;SDS011;8306;51.128;4.476;2023-07-16T09:08:21;4.50;;;4.00;;
16393;SDS011;8306;51.128;4.476;2023-07-16T09:10:58;5.37;;;4.40;;
16393;SDS011;8306;51.128;4.476;2023-07-16T09:13:20;5.23;;;4.73;;
16393;SDS011;8306;51.128;4.476;2023-07-16T09:15:53;4.43;;;3.97;;
16393;SDS011;8306;51.128;4.476;2023-07-16T09:18:19;4.13;;;3.57;;
16393;SDS011;8306;51.128;4.476;2023-07-16T09:20:45;5.17;;;4.10;;
16393;SDS011;8306;51.128;4.476;2023-07-16T09:23:12;4.73;;;4.23;;
16393;SDS011;8306;51.128;4.476;2023-07-16T09:25:38;5.90;;;4.57;;
16393;SDS011;8306;51.128;4.476;2023-07-16T09:28:05;5.50;;;3.93;;
16393;SDS011;8306;51.128;4.476;2023-07-16T09:30:31;4.57;;;4.03;;
16393;SDS011;8306;51.128;4.476;2023-07-16T09:32:58;4.43;;;3.83;;
16393;SDS011;8306;51.128;4.476;2023-07-16T09:35:24;5.57;;;4.20;;
16393;SDS011;8306;51.128;4.476;2023-07-16T09:37:51;4.93;;;3.90;;
16393;SDS011;8306;51.128;4.476;2023-07-16T09:40:17;5.40;;;3.80;;
16393;SDS011;8306;51.128;4.476;2023-07-16T09:42:44;4.67;;;4.03;;
16393;SDS011;8306;51.128;4.476;2023-07-16T09:45:19;4.67;;;4.03;;
16393;SDS011;8306;51.128;4.476;2023-07-16T09:47:45;5.33;;;4.53;;
16393;SDS011;8306;51.128;4.476;2023-07-16T09:50:12;4.80;;;4.10;;
16393;SDS011;8306;51.128;4.476;2023-07-16T09:52:38;4.70;;;4.00;;
16393;SDS011;8306;51.128;4.476;2023-07-16T09:55:08;4.80;;;4.23;;
16393;SDS011;8306;51.128;4.476;2023-07-16T09:57:35;5.23;;;4.30;;
16393;SDS011;8306;51.128;4.476;2023-07-16T10:00:05;4.53;;;3.67;;
16393;SDS011;8306;51.128;4.476;2023-07-16T10:02:33;4.87;;;4.30;;
16393;SDS011;8306;51.128;4.476;2023-07-16T10:04:56;5.13;;;4.23;;
16393;SDS011;8306;51.128;4.476;2023-07-16T10:07:23;5.03;;;4.30;;
16393;SDS011;8306;51.128;4.476;2023-07-16T10:09:53;4.43;;;3.97;;
16393;SDS011;8306;51.128;4.476;2023-07-16T10:12:19;4.67;;;3.83;;
16393;SDS011;8306;51.128;4.476;2023-07-16T10:14:46;4.23;;;3.83;;
16393;SDS011;8306;51.128;4.476;2023-07-16T10:17:12;5.50;;;4.00;;
16393;SDS011;8306;51.128;4.476;2023-07-16T10:22:32;4.30;;;3.57;;
16393;SDS011;8306;51.128;4.476;2023-07-16T10:25:00;4.23;;;3.83;;
16393;SDS011;8306;51.128;4.476;2023-07-16T10:27:30;4.83;;;4.10;;
16393;SDS011;8306;51.128;4.476;2023-07-16T10:29:53;6.00;;;4.30;;
16393;SDS011;8306;51.128;4.476;2023-07-16T10:32:20;5.17;;;4.10;;
16393;SDS011;8306;51.128;4.476;2023-07-16T10:34:46;5.37;;;4.30;;
16393;SDS011;8306;51.128;4.476;2023-07-16T10:37:13;4.53;;;3.93;;
16393;SDS011;8306;51.128;4.476;2023-07-16T10:39:49;5.23;;;4.10;;
16393;SDS011;8306;51.128;4.476;2023-07-16T10:42:16;6.10;;;4.47;;
16393;SDS011;8306;51.128;4.476;2023-07-16T10:44:41;5.97;;;4.23;;
16393;SDS011;8306;51.128;4.476;2023-07-16T10:47:08;4.87;;;3.87;;
16393;SDS011;8306;51.128;4.476;2023-07-16T10:49:34;5.53;;;4.00;;
16393;SDS011;8306;51.128;4.476;2023-07-16T10:52:01;4.43;;;3.50;;
16393;SDS011;8306;51.128;4.476;2023-07-16T10:54:27;6.43;;;4.10;;
16393;SDS011;8306;51.128;4.476;2023-07-16T10:56:54;4.43;;;3.70;;
16393;SDS011;8306;51.128;4.476;2023-07-16T10:59:20;4.53;;;3.80;;
16393;SDS011;8306;51.128;4.476;2023-07-16T11:01:47;6.03;;;4.47;;
16393;SDS011;8306;51.128;4.476;2023-07-16T11:04:13;5.30;;;4.57;;
16393;SDS011;8306;51.128;4.476;2023-07-16T11:06:40;7.63;;;5.17;;
16393;SDS011;8306;51.128;4.476;2023-07-16T11:09:07;7.20;;;5.57;;
16393;SDS011;8306;51.128;4.476;2023-07-16T11:11:33;5.67;;;5.17;;
16393;SDS011;8306;51.128;4.476;2023-07-16T11:13:59;5.60;;;4.70;;
16393;SDS011;8306;51.128;4.476;2023-07-16T11:16:26;5.27;;;4.67;;
16393;SDS011;8306;51.128;4.476;2023-07-16T11:18:52;5.17;;;4.30;;
16393;SDS011;8306;51.128;4.476;2023-07-16T11:21:19;4.73;;;4.27;;
16393;SDS011;8306;51.128;4.476;2023-07-16T11:23:45;4.37;;;3.90;;
16393;SDS011;8306;51.128;4.476;2023-07-16T11:26:11;4.93;;;4.03;;
16393;SDS011;8306;51.128;4.476;2023-07-16T11:28:38;5.40;;;4.30;;
16393;SDS011;8306;51.128;4.476;2023-07-16T11:31:13;4.93;;;3.80;;
16393;SDS011;8306;51.128;4.476;2023-07-16T11:33:37;4.53;;;3.40;;
16393;SDS011;8306;51.128;4.476;2023-07-16T11:36:03;3.70;;;3.40;;
16393;SDS011;8306;51.128;4.476;2023-07-16T11:38:30;4.13;;;3.70;;
16393;SDS011;8306;51.128;4.476;2023-07-16T11:40:59;4.00;;;3.60;;
16393;SDS011;8306;51.128;4.476;2023-07-16T11:43:23;3.67;;;3.30;;
16393;SDS011;8306;51.128;4.476;2023-07-16T11:45:49;2.60;;;2.40;;
16393;SDS011;8306;51.128;4.476;2023-07-16T11:48:16;3.57;;;2.83;;
16393;SDS011;8306;51.128;4.476;2023-07-16T11:50:42;2.80;;;2.53;;
16393;SDS011;8306;51.128;4.476;2023-07-16T11:53:09;3.73;;;2.40;;
16393;SDS011;8306;51.128;4.476;2023-07-16T11:55:35;2.53;;;2.27;;
16393;SDS011;8306;51.128;4.476;2023-07-16T11:58:02;2.57;;;2.37;;
16393;SDS011;8306;51.128;4.476;2023-07-16T12:00:28;2.10;;;1.90;;
16393;SDS011;8306;51.128;4.476;2023-07-16T12:02:55;2.57;;;2.23;;
16393;SDS011;8306;51.128;4.476;2023-07-16T12:05:21;2.63;;;2.13;;
16393;SDS011;8306;51.128;4.476;2023-07-16T12:07:48;3.20;;;2.20;;
16393;SDS011;8306;51.128;4.476;2023-07-16T12:10:14;2.07;;;1.90;;
16393;SDS011;8306;51.128;4.476;2023-07-16T12:12:41;3.37;;;2.47;;
16393;SDS011;8306;51.128;4.476;2023-07-16T12:15:07;3.40;;;2.77;;
16393;SDS011;8306;51.128;4.476;2023-07-16T12:17:33;2.63;;;2.20;;
16393;SDS011;8306;51.128;4.476;2023-07-16T12:20:00;2.33;;;2.13;;
16393;SDS011;8306;51.128;4.476;2023-07-16T12:22:26;2.77;;;2.27;;
16393;SDS011;8306;51.128;4.476;2023-07-16T12:24:53;2.57;;;2.00;;
16393;SDS011;8306;51.128;4.476;2023-07-16T12:27:20;2.90;;;2.57;;
16393;SDS011;8306;51.128;4.476;2023-07-16T12:29:46;3.03;;;2.73;;
16393;SDS011;8306;51.128;4.476;2023-07-16T12:32:13;3.20;;;2.60;;
16393;SDS011;8306;51.128;4.476;2023-07-16T12:34:39;3.20;;;2.50;;
16393;SDS011;8306;51.128;4.476;2023-07-16T12:37:05;4.70;;;2.73;;
16393;SDS011;8306;51.128;4.476;2023-07-16T12:39:32;3.27;;;2.97;;
16393;SDS011;8306;51.128;4.476;2023-07-16T12:41:58;3.03;;;2.83;;
16393;SDS011;8306;51.128;4.476;2023-07-16T12:44:25;2.70;;;2.50;;
16393;SDS011;8306;51.128;4.476;2023-07-16T12:46:51;3.30;;;3.00;;
16393;SDS011;8306;51.128;4.476;2023-07-16T12:49:18;2.67;;;2.47;;
16393;SDS011;8306;51.128;4.476;2023-07-16T12:51:44;2.77;;;2.40;;
16393;SDS011;8306;51.128;4.476;2023-07-16T12:54:11;3.33;;;2.80;;
16393;SDS011;8306;51.128;4.476;2023-07-16T12:56:37;2.40;;;2.20;;
16393;SDS011;8306;51.128;4.476;2023-07-16T12:59:04;2.70;;;2.43;;
16393;SDS011;8306;51.128;4.476;2023-07-16T13:01:30;2.40;;;2.23;;
16393;SDS011;8306;51.128;4.476;2023-07-16T13:03:57;3.67;;;2.20;;
16393;SDS011;8306;51.128;4.476;2023-07-16T13:06:23;2.90;;;2.23;;
16393;SDS011;8306;51.128;4.476;2023-07-16T13:08:50;2.90;;;2.67;;
16393;SDS011;8306;51.128;4.476;2023-07-16T13:11:16;3.33;;;2.80;;
16393;SDS011;8306;51.128;4.476;2023-07-16T13:13:42;2.93;;;2.63;;
16393;SDS011;8306;51.128;4.476;2023-07-16T13:16:09;2.50;;;2.10;;
16393;SDS011;8306;51.128;4.476;2023-07-16T13:18:35;2.67;;;2.03;;
16393;SDS011;8306;51.128;4.476;2023-07-16T13:21:02;2.63;;;2.10;;
16393;SDS011;8306;51.128;4.476;2023-07-16T13:23:28;2.40;;;1.93;;
16393;SDS011;8306;51.128;4.476;2023-07-16T13:25:55;1.97;;;1.67;;
16393;SDS011;8306;51.128;4.476;2023-07-16T13:28:21;3.17;;;2.40;;
16393;SDS011;8306;51.128;4.476;2023-07-16T13:30:48;4.17;;;2.53;;
16393;SDS011;8306;51.128;4.476;2023-07-16T13:33:14;2.27;;;2.13;;
16393;SDS011;8306;51.128;4.476;2023-07-16T13:35:41;2.80;;;1.90;;
16393;SDS011;8306;51.128;4.476;2023-07-16T13:38:07;2.80;;;2.10;;
16393;SDS011;8306;51.128;4.476;2023-07-16T13:40:34;2.63;;;2.43;;
16393;SDS011;8306;51.128;4.476;2023-07-16T13:43:00;2.60;;;2.40;;
16393;SDS011;8306;51.128;4.476;2023-07-16T13:45:27;2.60;;;2.13;;
16393;SDS011;8306;51.128;4.476;2023-07-16T13:47:53;2.30;;;2.10;;
16393;SDS011;8306;51.128;4.476;2023-07-16T13:50:20;2.27;;;2.07;;
16393;SDS011;8306;51.128;4.476;2023-07-16T13:52:46;2.20;;;1.90;;
16393;SDS011;8306;51.128;4.476;2023-07-16T13:55:13;2.40;;;2.20;;
16393;SDS011;8306;51.128;4.476;2023-07-16T13:57:39;2.43;;;1.90;;
16393;SDS011;8306;51.128;4.476;2023-07-16T14:00:06;2.37;;;0.90;;
16393;SDS011;8306;51.128;4.476;2023-07-16T14:02:32;1.67;;;1.00;;
16393;SDS011;8306;51.128;4.476;2023-07-16T14:04:59;2.10;;;1.13;;
16393;SDS011;8306;51.128;4.476;2023-07-16T14:07:25;1.73;;;1.13;;
16393;SDS011;8306;51.128;4.476;2023-07-16T14:09:52;1.80;;;1.30;;
16393;SDS011;8306;51.128;4.476;2023-07-16T14:12:18;1.63;;;1.00;;
16393;SDS011;8306;51.128;4.476;2023-07-16T14:14:44;1.50;;;1.10;;
16393;SDS011;8306;51.128;4.476;2023-07-16T14:17:11;1.87;;;1.20;;
16393;SDS011;8306;51.128;4.476;2023-07-16T14:19:37;1.80;;;0.87;;
16393;SDS011;8306;51.128;4.476;2023-07-16T14:22:04;1.50;;;1.00;;
16393;SDS011;8306;51.128;4.476;2023-07-16T14:24:30;1.33;;;0.97;;
16393;SDS011;8306;51.128;4.476;2023-07-16T14:26:58;1.73;;;0.80;;
16393;SDS011;8306;51.128;4.476;2023-07-16T14:29:23;0.97;;;0.83;;
16393;SDS011;8306;51.128;4.476;2023-07-16T14:31:50;1.30;;;0.70;;
16393;SDS011;8306;51.128;4.476;2023-07-16T14:34:16;0.70;;;0.70;;
16393;SDS011;8306;51.128;4.476;2023-07-16T14:36:43;1.50;;;0.70;;
16393;SDS011;8306;51.128;4.476;2023-07-16T14:39:09;1.17;;;0.67;;
16393;SDS011;8306;51.128;4.476;2023-07-16T14:41:36;0.80;;;0.80;;
16393;SDS011;8306;51.128;4.476;2023-07-16T14:44:02;1.07;;;0.77;;
16393;SDS011;8306;51.128;4.476;2023-07-16T14:46:29;1.00;;;0.90;;
16393;SDS011;8306;51.128;4.476;2023-07-16T14:48:55;1.10;;;1.00;;
16393;SDS011;8306;51.128;4.476;2023-07-16T14:51:22;0.87;;;0.80;;
16393;SDS011;8306;51.128;4.476;2023-07-16T14:53:48;2.20;;;0.80;;
16393;SDS011;8306;51.128;4.476;2023-07-16T14:56:15;0.90;;;0.80;;
16393;SDS011;8306;51.128;4.476;2023-07-16T14:58:41;1.60;;;1.00;;
16393;SDS011;8306;51.128;4.476;2023-07-16T15:01:08;1.10;;;0.90;;
16393;SDS011;8306;51.128;4.476;2023-07-16T15:03:34;1.00;;;0.70;;
16393;SDS011;8306;51.128;4.476;2023-07-16T15:06:00;0.60;;;0.60;;
16393;SDS011;8306;51.128;4.476;2023-07-16T15:08:27;1.00;;;0.73;;
16393;SDS011;8306;51.128;4.476;2023-07-16T15:10:53;0.43;;;0.43;;